createdAt,value
2022-09-30T00:01:36.585Z,32.95
2022-09-30T00:04:05.544Z,32.13
2022-09-30T00:06:36.334Z,33.20
2022-09-30T00:09:05.386Z,33.55
2022-09-30T00:11:38.621Z,33.65
2022-09-30T00:14:07.952Z,32.60
2022-09-30T00:16:38.066Z,33.80
2022-09-30T00:19:07.083Z,33.70
2022-09-30T00:21:35.215Z,33.00
2022-09-30T00:24:04.343Z,33.70
2022-09-30T00:26:34.959Z,34.03
2022-09-30T00:29:04.426Z,34.20
2022-09-30T00:31:35.416Z,33.42
2022-09-30T00:34:11.434Z,34.13
2022-09-30T00:36:44.290Z,33.78
2022-09-30T00:39:14.994Z,34.85
2022-09-30T00:41:45.313Z,34.38
2022-09-30T00:44:50.811Z,34.10
2022-09-30T00:47:53.801Z,35.10
2022-09-30T00:50:30.912Z,34.00
2022-09-30T00:53:04.863Z,34.55
2022-09-30T00:55:42.078Z,34.70
2022-09-30T00:58:15.573Z,34.25
2022-09-30T01:00:43.965Z,35.65
2022-09-30T01:03:11.988Z,34.80
2022-09-30T01:05:40.046Z,34.60
2022-09-30T01:08:10.078Z,35.13
2022-09-30T01:10:38.333Z,34.97
2022-09-30T01:13:06.958Z,32.63
2022-09-30T01:16:08.601Z,33.33
2022-09-30T01:18:50.657Z,34.60
2022-09-30T01:21:56.614Z,33.63
2022-09-30T01:25:00.357Z,34.17
2022-09-30T01:27:59.011Z,34.13
2022-09-30T01:30:44.652Z,34.28
2022-09-30T01:33:27.781Z,34.85
2022-09-30T01:36:12.004Z,35.08
2022-09-30T01:38:49.471Z,35.17
2022-09-30T01:41:25.619Z,35.58
2022-09-30T01:44:04.238Z,34.80
2022-09-30T01:46:38.600Z,34.50
2022-09-30T01:49:13.521Z,34.05
2022-09-30T01:51:47.103Z,33.42
2022-09-30T01:54:20.285Z,33.67
2022-09-30T01:56:53.082Z,33.35
2022-09-30T01:59:25.901Z,34.05
2022-09-30T02:01:59.811Z,35.42
2022-09-30T02:04:33.128Z,34.50
2022-09-30T02:07:05.371Z,34.63
2022-09-30T02:09:38.502Z,33.92
2022-09-30T02:12:10.157Z,34.55
2022-09-30T02:14:42.986Z,35.40
2022-09-30T02:17:19.765Z,34.80
2022-09-30T02:19:51.353Z,36.30
2022-09-30T02:22:22.915Z,34.97
2022-09-30T02:24:56.817Z,34.20
2022-09-30T02:27:31.188Z,33.22
2022-09-30T02:30:04.130Z,34.03
2022-09-30T02:32:39.007Z,33.90
2022-09-30T02:35:12.052Z,33.55
2022-09-30T02:37:45.105Z,33.33
2022-09-30T02:40:18.739Z,34.55
2022-09-30T02:42:47.295Z,34.20
2022-09-30T02:45:18.141Z,34.20
2022-09-30T02:48:05.937Z,34.03
2022-09-30T02:50:39.281Z,35.20
2022-09-30T02:53:21.414Z,33.50
2022-09-30T02:56:09.464Z,35.05
2022-09-30T02:58:39.492Z,33.53
2022-09-30T03:01:08.922Z,33.28
2022-09-30T03:03:42.238Z,36.28
2022-09-30T03:06:11.212Z,34.70
2022-09-30T03:08:39.537Z,34.28
2022-09-30T03:11:08.558Z,33.20
2022-09-30T03:14:09.174Z,33.67
2022-09-30T03:17:02.901Z,33.45
2022-09-30T03:19:47.637Z,33.42
2022-09-30T03:22:40.848Z,32.83
2022-09-30T03:25:24.954Z,32.63
2022-09-30T03:28:05.951Z,33.17
2022-09-30T03:30:38.924Z,32.88
2022-09-30T03:33:11.099Z,32.33
2022-09-30T03:35:48.961Z,31.90
2022-09-30T03:38:26.525Z,34.08
2022-09-30T03:41:04.336Z,32.53
2022-09-30T03:43:37.182Z,31.25
2022-09-30T03:46:11.131Z,34.63
2022-09-30T03:48:40.768Z,32.40
2022-09-30T03:51:10.764Z,32.95
2022-09-30T03:53:40.873Z,32.88
2022-09-30T03:56:08.817Z,32.92
2022-09-30T03:58:45.214Z,33.17
2022-09-30T04:01:21.292Z,33.22
2022-09-30T04:03:52.416Z,32.95
2022-09-30T04:06:23.129Z,34.80
2022-09-30T04:08:53.799Z,33.92
2022-09-30T04:11:21.883Z,33.75
2022-09-30T04:13:49.843Z,33.00
2022-09-30T04:16:17.825Z,33.95
2022-09-30T04:18:45.786Z,33.90
2022-09-30T04:21:15.382Z,32.78
2022-09-30T04:23:45.282Z,32.65
2022-09-30T04:26:15.532Z,32.00
2022-09-30T04:28:44.222Z,34.50
2022-09-30T04:31:13.444Z,34.75
2022-09-30T04:33:42.406Z,33.58
2022-09-30T04:36:11.288Z,34.35
2022-09-30T04:38:39.291Z,35.35
2022-09-30T04:41:09.191Z,33.88
2022-09-30T04:43:37.184Z,35.92
2022-09-30T04:46:06.046Z,34.55
2022-09-30T04:48:34.149Z,34.33
2022-09-30T04:51:02.165Z,34.38
2022-09-30T04:53:30.571Z,34.70
2022-09-30T04:56:02.483Z,34.83
2022-09-30T04:58:36.879Z,35.17
2022-09-30T05:01:06.945Z,36.38
2022-09-30T05:03:35.805Z,36.83
2022-09-30T05:06:05.014Z,36.03
2022-09-30T05:08:34.322Z,36.33
2022-09-30T05:11:04.266Z,37.03
2022-09-30T05:13:35.521Z,39.03
2022-09-30T05:16:03.977Z,39.38
2022-09-30T05:18:34.099Z,35.88
2022-09-30T05:21:03.092Z,35.63
2022-09-30T05:23:32.900Z,37.53
2022-09-30T05:26:01.836Z,34.25
2022-09-30T05:28:31.250Z,34.88
2022-09-30T05:31:03.134Z,37.20
2022-09-30T05:33:31.828Z,38.38
2022-09-30T05:36:01.998Z,38.85
2022-09-30T05:38:30.006Z,36.10
2022-09-30T05:40:58.356Z,34.13
2022-09-30T05:43:26.552Z,35.33
2022-09-30T05:45:55.913Z,35.20
2022-09-30T05:48:26.481Z,34.67
2022-09-30T05:50:56.119Z,36.55
2022-09-30T05:53:24.212Z,35.58
2022-09-30T05:55:52.854Z,34.53
2022-09-30T05:58:22.428Z,35.20
2022-09-30T06:00:51.607Z,36.15
2022-09-30T06:03:20.089Z,36.95
2022-09-30T06:05:49.711Z,37.42
2022-09-30T06:08:20.483Z,37.92
2022-09-30T06:10:48.503Z,36.50
2022-09-30T06:13:17.301Z,36.63
2022-09-30T06:15:47.361Z,36.70
2022-09-30T06:18:17.878Z,37.38
2022-09-30T06:20:46.193Z,36.75
2022-09-30T06:23:15.873Z,38.20
2022-09-30T06:25:45.172Z,38.10
2022-09-30T06:28:13.105Z,40.85
2022-09-30T06:30:41.220Z,37.47
2022-09-30T06:33:09.249Z,36.67
2022-09-30T06:35:37.970Z,36.90
2022-09-30T06:38:05.941Z,37.95
2022-09-30T06:40:35.324Z,37.35
2022-09-30T06:43:03.651Z,37.47
2022-09-30T06:45:33.416Z,39.60
2022-09-30T06:48:04.075Z,37.92
2022-09-30T06:50:33.050Z,38.67
2022-09-30T06:53:01.917Z,36.88
2022-09-30T06:55:31.499Z,36.55
2022-09-30T06:58:01.168Z,35.88
2022-09-30T07:00:29.809Z,37.53
2022-09-30T07:02:57.909Z,37.15
2022-09-30T07:05:26.808Z,36.38
2022-09-30T07:07:56.182Z,34.90
2022-09-30T07:10:24.272Z,35.63
2022-09-30T07:12:52.934Z,34.75
2022-09-30T07:15:23.312Z,35.65
2022-09-30T07:17:55.095Z,35.97
2022-09-30T07:20:23.152Z,35.65
2022-09-30T07:22:51.319Z,35.47
2022-09-30T07:25:19.728Z,35.47
2022-09-30T07:27:47.996Z,34.42
2022-09-30T07:30:25.838Z,35.10
2022-09-30T07:32:56.239Z,34.17
2022-09-30T07:35:24.166Z,33.00
2022-09-30T07:37:52.095Z,34.10
2022-09-30T07:40:20.158Z,32.45
2022-09-30T07:42:48.142Z,34.53
2022-09-30T07:45:17.110Z,32.40
2022-09-30T07:47:51.159Z,32.83
2022-09-30T07:50:22.978Z,31.30
2022-09-30T07:52:51.256Z,31.63
2022-09-30T07:55:19.397Z,32.08
2022-09-30T07:57:47.376Z,30.92
2022-09-30T08:00:37.422Z,29.20
2022-09-30T08:03:03.382Z,27.67
2022-09-30T08:05:32.806Z,28.10
2022-09-30T08:08:00.883Z,28.23
2022-09-30T08:10:28.955Z,28.98
2022-09-30T08:12:59.206Z,27.15
2022-09-30T08:15:29.091Z,28.73
2022-09-30T08:17:57.358Z,26.23
2022-09-30T08:20:25.525Z,28.10
2022-09-30T08:22:56.101Z,28.73
2022-09-30T08:25:25.440Z,26.60
2022-09-30T08:27:53.411Z,27.38
2022-09-30T08:30:21.443Z,26.80
2022-09-30T08:32:49.438Z,25.15
2022-09-30T08:35:18.056Z,26.80
2022-09-30T08:37:46.030Z,27.27
2022-09-30T08:40:22.769Z,23.38
2022-09-30T08:43:18.386Z,22.58
2022-09-30T08:45:57.660Z,23.33
2022-09-30T08:48:40.208Z,20.48
2022-09-30T08:51:18.010Z,21.02
2022-09-30T08:53:48.483Z,20.90
2022-09-30T08:56:24.218Z,18.33
2022-09-30T08:58:55.494Z,20.33
2022-09-30T09:01:32.208Z,18.25
2022-09-30T09:04:01.596Z,19.10
2022-09-30T09:06:37.113Z,17.73
2022-09-30T09:09:25.435Z,18.95
2022-09-30T09:12:07.000Z,17.55
2022-09-30T09:14:45.211Z,13.98
2022-09-30T09:17:27.176Z,13.60
2022-09-30T09:20:03.667Z,12.43
2022-09-30T09:22:33.525Z,14.15
2022-09-30T09:25:03.451Z,14.50
2022-09-30T09:27:46.571Z,13.63
2022-09-30T09:30:17.380Z,12.40
2022-09-30T09:32:51.475Z,12.43
2022-09-30T09:35:30.501Z,12.25
2022-09-30T09:38:20.752Z,9.32
2022-09-30T09:41:00.101Z,12.13
2022-09-30T09:43:43.913Z,12.63
2022-09-30T09:46:20.620Z,10.30
2022-09-30T09:48:48.994Z,10.77
2022-09-30T09:51:26.334Z,9.70
2022-09-30T09:54:01.551Z,8.40
2022-09-30T09:56:33.324Z,9.35
2022-09-30T09:59:19.859Z,8.55
2022-09-30T10:01:51.508Z,8.65
2022-09-30T10:04:26.371Z,8.88
2022-09-30T10:06:57.749Z,8.50
2022-09-30T10:09:31.807Z,7.70
2022-09-30T10:12:20.070Z,7.80
2022-09-30T10:14:58.949Z,8.95
2022-09-30T10:17:30.523Z,10.98
2022-09-30T10:20:07.020Z,12.98
2022-09-30T10:22:39.024Z,13.63
2022-09-30T10:25:21.804Z,13.55
2022-09-30T10:27:55.022Z,12.60
2022-09-30T10:30:42.160Z,9.80
2022-09-30T10:33:22.922Z,11.32
2022-09-30T10:35:56.965Z,9.75
2022-09-30T10:38:29.532Z,7.95
2022-09-30T10:41:01.893Z,3.45
2022-09-30T10:43:34.041Z,3.30
2022-09-30T10:46:25.022Z,3.10
2022-09-30T10:48:55.144Z,3.03
2022-09-30T10:51:27.259Z,3.83
2022-09-30T10:53:57.350Z,5.05
2022-09-30T10:56:40.796Z,5.90
2022-09-30T10:59:30.114Z,6.22
2022-09-30T11:02:11.079Z,5.93
2022-09-30T11:04:43.819Z,7.03
2022-09-30T11:07:22.065Z,7.85
2022-09-30T11:09:58.144Z,6.60
2022-09-30T11:12:36.250Z,5.10
2022-09-30T11:15:13.812Z,5.72
2022-09-30T11:17:51.700Z,4.40
2022-09-30T11:20:26.569Z,4.05
2022-09-30T11:23:02.115Z,4.60
2022-09-30T11:25:36.367Z,4.63
2022-09-30T11:28:34.812Z,4.80
2022-09-30T11:31:14.368Z,4.40
2022-09-30T11:33:59.612Z,5.40
2022-09-30T11:36:42.192Z,4.97
2022-09-30T11:39:32.278Z,5.15
2022-09-30T11:42:08.953Z,4.80
2022-09-30T11:44:41.368Z,5.28
2022-09-30T11:47:48.002Z,4.07
2022-09-30T11:50:57.570Z,4.20
2022-09-30T11:53:38.953Z,4.60
2022-09-30T11:56:24.797Z,3.72
2022-09-30T11:58:56.901Z,4.13
2022-09-30T12:01:33.492Z,4.22
2022-09-30T12:04:06.635Z,3.85
2022-09-30T12:06:37.401Z,3.45
2022-09-30T12:09:15.595Z,3.50
2022-09-30T12:11:51.590Z,4.07
2022-09-30T12:14:27.822Z,3.55
2022-09-30T12:16:58.027Z,3.47
2022-09-30T12:19:31.217Z,3.90
2022-09-30T12:22:06.094Z,4.53
2022-09-30T12:24:41.525Z,4.53
2022-09-30T12:27:23.142Z,4.20
2022-09-30T12:30:18.386Z,4.47
2022-09-30T12:33:11.905Z,3.90
2022-09-30T12:36:09.261Z,3.63
2022-09-30T12:38:59.733Z,3.10
2022-09-30T12:41:43.561Z,3.53
2022-09-30T12:44:52.669Z,3.35
2022-09-30T12:47:45.154Z,3.28
2022-09-30T12:50:21.629Z,3.33
2022-09-30T12:52:51.117Z,2.63
2022-09-30T12:55:28.192Z,2.50
2022-09-30T12:58:00.508Z,2.60
2022-09-30T13:00:31.819Z,2.15
2022-09-30T13:03:08.879Z,2.00
2022-09-30T13:05:52.789Z,2.33
2022-09-30T13:08:32.860Z,2.03
2022-09-30T13:11:05.917Z,2.00
2022-09-30T13:13:37.184Z,2.40
2022-09-30T13:16:06.864Z,1.98
2022-09-30T13:19:03.458Z,1.90
2022-09-30T13:21:32.534Z,2.28
2022-09-30T13:24:01.060Z,2.05
2022-09-30T13:26:48.544Z,2.50
2022-09-30T13:29:52.322Z,2.45
2022-09-30T13:32:37.436Z,2.30
2022-09-30T13:35:43.241Z,2.10
2022-09-30T13:38:20.675Z,2.20
2022-09-30T13:41:06.988Z,3.35
2022-09-30T13:43:40.888Z,3.03
2022-09-30T13:46:18.758Z,2.70
2022-09-30T13:48:54.326Z,3.13
2022-09-30T13:51:25.665Z,2.88
2022-09-30T13:53:59.470Z,3.13
2022-09-30T13:56:37.025Z,3.15
2022-09-30T13:59:33.138Z,3.20
2022-09-30T14:02:23.305Z,3.30
2022-09-30T14:05:26.907Z,3.42
2022-09-30T14:08:17.202Z,3.17
2022-09-30T14:11:03.639Z,3.30
2022-09-30T14:13:47.287Z,3.33
2022-09-30T14:16:47.457Z,3.50
2022-09-30T14:19:40.344Z,2.95
2022-09-30T14:22:10.898Z,3.70
2022-09-30T14:24:40.375Z,3.72
2022-09-30T14:27:28.718Z,4.50
2022-09-30T14:30:06.160Z,4.18
2022-09-30T14:32:41.043Z,4.50
2022-09-30T14:35:17.083Z,5.18
2022-09-30T14:37:50.281Z,4.07
2022-09-30T14:40:22.000Z,4.70
2022-09-30T14:42:50.560Z,4.70
2022-09-30T14:45:26.360Z,4.57
2022-09-30T14:47:58.586Z,5.00
2022-09-30T14:50:32.460Z,5.07
2022-09-30T14:53:03.972Z,4.97
2022-09-30T14:55:35.487Z,5.10
2022-09-30T14:58:29.464Z,5.45
2022-09-30T15:01:09.902Z,5.03
2022-09-30T15:03:43.921Z,5.15
2022-09-30T15:06:21.200Z,5.80
2022-09-30T15:08:51.366Z,4.80
2022-09-30T15:11:21.551Z,5.30
2022-09-30T15:13:59.996Z,4.93
2022-09-30T15:16:29.786Z,5.53
2022-09-30T15:19:00.517Z,6.05
2022-09-30T15:21:34.998Z,5.47
2022-09-30T15:24:03.699Z,5.80
2022-09-30T15:26:34.129Z,5.05
2022-09-30T15:29:07.061Z,4.60
2022-09-30T15:31:35.973Z,4.68
2022-09-30T15:34:13.966Z,5.00
2022-09-30T15:36:44.788Z,4.57
2022-09-30T15:39:22.782Z,4.43
2022-09-30T15:41:51.127Z,4.35
2022-09-30T15:44:37.877Z,4.45
2022-09-30T15:47:08.481Z,4.10
2022-09-30T15:49:49.669Z,3.95
2022-09-30T15:52:41.184Z,4.60
2022-09-30T15:55:41.813Z,3.97
2022-09-30T15:58:37.708Z,4.18
2022-09-30T16:01:19.834Z,4.00
2022-09-30T16:03:51.045Z,4.60
2022-09-30T16:06:25.527Z,3.90
2022-09-30T16:09:01.400Z,4.30
2022-09-30T16:11:34.865Z,4.32
2022-09-30T16:14:06.099Z,4.18
2022-09-30T16:16:38.037Z,4.07
2022-09-30T16:19:07.013Z,3.90
2022-09-30T16:21:50.690Z,3.72
2022-09-30T16:24:48.530Z,3.90
2022-09-30T16:27:40.617Z,3.70
2022-09-30T16:30:09.093Z,3.78
2022-09-30T16:32:40.225Z,3.60
2022-09-30T16:35:15.239Z,3.80
2022-09-30T16:37:44.178Z,3.30
2022-09-30T16:40:21.992Z,3.30
2022-09-30T16:42:50.167Z,3.25
2022-09-30T16:45:21.021Z,3.67
2022-09-30T16:47:50.417Z,3.13
2022-09-30T16:50:26.600Z,3.30
2022-09-30T16:52:54.820Z,3.20
2022-09-30T16:55:25.242Z,3.80
2022-09-30T16:57:54.292Z,3.20
2022-09-30T17:00:22.408Z,3.90
2022-09-30T17:02:50.798Z,3.42
2022-09-30T17:05:20.609Z,3.85
2022-09-30T17:07:52.144Z,3.30
2022-09-30T17:10:25.194Z,3.40
2022-09-30T17:12:53.588Z,3.50
2022-09-30T17:15:22.765Z,3.50
2022-09-30T17:17:52.825Z,3.65
2022-09-30T17:20:21.341Z,3.47
2022-09-30T17:22:50.860Z,3.38
2022-09-30T17:25:19.952Z,3.20
2022-09-30T17:27:50.930Z,3.28
2022-09-30T17:30:21.389Z,3.25
2022-09-30T17:32:49.724Z,3.53
2022-09-30T17:35:17.975Z,3.30
2022-09-30T17:37:47.633Z,3.30
2022-09-30T17:40:33.321Z,3.13
2022-09-30T17:43:11.165Z,3.63
2022-09-30T17:45:41.218Z,3.92
2022-09-30T17:48:12.794Z,3.80
2022-09-30T17:50:47.436Z,3.85
2022-09-30T17:53:18.180Z,3.30
2022-09-30T17:55:48.183Z,3.55
2022-09-30T17:58:20.618Z,3.70
2022-09-30T18:00:48.949Z,3.60
2022-09-30T18:03:17.039Z,3.28
2022-09-30T18:05:45.569Z,3.35
2022-09-30T18:08:14.117Z,3.38
2022-09-30T18:10:42.170Z,3.53
2022-09-30T18:13:11.608Z,3.22
2022-09-30T18:15:41.226Z,3.08
2022-09-30T18:18:09.251Z,3.00
2022-09-30T18:20:39.888Z,2.92
2022-09-30T18:23:08.127Z,2.80
2022-09-30T18:25:36.763Z,2.92
2022-09-30T18:28:06.298Z,3.08
2022-09-30T18:30:35.049Z,2.90
2022-09-30T18:33:07.126Z,2.65
2022-09-30T18:35:37.416Z,3.00
2022-09-30T18:38:06.775Z,2.78
2022-09-30T18:40:35.210Z,2.97
2022-09-30T18:43:05.482Z,2.60
2022-09-30T18:45:39.029Z,2.70
2022-09-30T18:48:09.002Z,3.00
2022-09-30T18:50:37.486Z,2.72
2022-09-30T18:53:09.583Z,2.60
2022-09-30T18:55:38.971Z,2.80
2022-09-30T18:58:09.786Z,2.85
2022-09-30T19:00:38.233Z,3.13
2022-09-30T19:03:10.217Z,2.63
2022-09-30T19:05:39.737Z,2.92
2022-09-30T19:08:08.913Z,2.65
2022-09-30T19:10:40.732Z,2.67
2022-09-30T19:13:09.192Z,2.50
2022-09-30T19:15:39.611Z,2.60
2022-09-30T19:18:07.926Z,3.65
2022-09-30T19:20:37.832Z,3.17
2022-09-30T19:23:10.671Z,2.60
2022-09-30T19:25:40.703Z,2.88
2022-09-30T19:28:09.066Z,2.70
2022-09-30T19:30:41.993Z,2.92
2022-09-30T19:33:10.317Z,2.78
2022-09-30T19:35:40.963Z,2.85
2022-09-30T19:38:12.434Z,2.50
2022-09-30T19:40:40.484Z,2.78
2022-09-30T19:43:08.507Z,2.53
2022-09-30T19:45:36.466Z,2.90
2022-09-30T19:48:06.088Z,2.85
2022-09-30T19:50:34.765Z,2.92
2022-09-30T19:53:02.709Z,2.58
2022-09-30T19:55:39.942Z,2.60
2022-09-30T19:58:14.075Z,2.78
2022-09-30T20:00:43.564Z,2.58
2022-09-30T20:03:12.919Z,2.80
2022-09-30T20:05:44.002Z,2.70
2022-09-30T20:08:12.020Z,3.10
2022-09-30T20:10:41.470Z,3.10
2022-09-30T20:13:09.465Z,2.72
2022-09-30T20:15:53.606Z,2.80
2022-09-30T20:18:21.882Z,2.90
2022-09-30T20:20:49.879Z,2.75
2022-09-30T20:23:20.827Z,3.00
2022-09-30T20:25:51.742Z,3.00
2022-09-30T20:28:20.317Z,2.70
2022-09-30T20:30:49.224Z,3.67
2022-09-30T20:33:18.881Z,2.88
2022-09-30T20:35:47.264Z,3.33
2022-09-30T20:38:17.474Z,3.55
2022-09-30T20:40:45.878Z,3.30
2022-09-30T20:43:15.287Z,3.50
2022-09-30T20:45:43.372Z,3.70
2022-09-30T20:48:11.430Z,3.70
2022-09-30T20:50:43.432Z,3.83
2022-09-30T20:53:13.856Z,3.75
2022-09-30T20:55:43.439Z,3.90
2022-09-30T20:58:13.288Z,4.45
2022-09-30T21:00:43.765Z,5.35
2022-09-30T21:03:16.028Z,6.63
2022-09-30T21:05:53.700Z,7.72
2022-09-30T21:08:21.621Z,9.80
2022-09-30T21:10:49.687Z,14.52
2022-09-30T21:13:17.711Z,25.67
2022-09-30T21:15:47.188Z,28.00
2022-09-30T21:18:15.290Z,32.08
2022-09-30T21:20:43.386Z,32.90
2022-09-30T21:23:11.406Z,29.67
2022-09-30T21:25:40.361Z,31.02
2022-09-30T21:28:08.555Z,33.17
2022-09-30T21:30:42.637Z,36.78
2022-09-30T21:33:12.245Z,35.63
2022-09-30T21:35:40.268Z,36.72
2022-09-30T21:38:08.243Z,39.63
2022-09-30T21:40:36.628Z,38.83
2022-09-30T21:43:04.788Z,40.40
2022-09-30T21:45:32.925Z,40.17
2022-09-30T21:48:06.173Z,39.78
2022-09-30T21:50:37.260Z,40.78
2022-09-30T21:53:05.222Z,41.10
2022-09-30T21:55:33.428Z,40.05
2022-09-30T21:58:03.831Z,40.80
2022-09-30T22:00:48.790Z,39.33
2022-09-30T22:03:16.877Z,38.30
2022-09-30T22:05:52.216Z,37.63
2022-09-30T22:08:21.092Z,39.30
2022-09-30T22:10:49.276Z,40.30
2022-09-30T22:13:22.116Z,39.15
2022-09-30T22:15:50.516Z,38.92
2022-09-30T22:18:21.322Z,38.58
2022-09-30T22:20:50.731Z,39.78
2022-09-30T22:23:20.919Z,38.42
2022-09-30T22:25:48.889Z,39.33
2022-09-30T22:28:16.994Z,39.97
2022-09-30T22:30:45.104Z,37.67
2022-09-30T22:33:41.683Z,39.47
2022-09-30T22:36:28.480Z,38.45
2022-09-30T22:38:56.583Z,38.47
2022-09-30T22:41:24.937Z,40.03
2022-09-30T22:43:52.933Z,39.42
2022-09-30T22:46:21.050Z,38.78
2022-09-30T22:48:49.556Z,38.35
2022-09-30T22:51:21.680Z,37.83
2022-09-30T22:53:49.727Z,38.17
2022-09-30T22:56:17.668Z,38.47
2022-09-30T22:58:47.192Z,38.92
2022-09-30T23:01:15.573Z,37.85
2022-09-30T23:03:44.320Z,37.50
2022-09-30T23:06:12.631Z,36.70
2022-09-30T23:08:42.593Z,36.30
2022-09-30T23:11:12.133Z,37.53
2022-09-30T23:13:40.370Z,36.42
2022-09-30T23:16:09.117Z,38.20
2022-09-30T23:18:38.227Z,36.17
2022-09-30T23:21:08.924Z,35.72
2022-09-30T23:23:38.293Z,36.90
2022-09-30T23:26:09.413Z,36.50
2022-09-30T23:28:37.619Z,35.22
2022-09-30T23:31:09.241Z,35.33
2022-09-30T23:33:38.389Z,35.92
2022-09-30T23:36:07.873Z,36.17
2022-09-30T23:38:35.917Z,35.53
2022-09-30T23:41:05.220Z,36.00
2022-09-30T23:43:35.627Z,34.75
2022-09-30T23:46:06.318Z,35.78
2022-09-30T23:48:34.454Z,33.90
2022-09-30T23:51:04.435Z,33.33
2022-09-30T23:53:33.633Z,33.63
2022-09-30T23:56:04.293Z,33.63
2022-09-30T23:58:35.603Z,32.20
